sensor_id;sensor_type;location;lat;lon;timestamp;temperature;humidity
75451;DHT22;64029;48.244;9.188;2023-04-24T00:02:01;9.60;81.50
75451;DHT22;64029;48.244;9.188;2023-04-24T00:04:29;9.60;81.90
75451;DHT22;64029;48.244;9.188;2023-04-24T00:06:57;9.60;81.90
75451;DHT22;64029;48.244;9.188;2023-04-24T00:09:25;9.60;81.90
75451;DHT22;64029;48.244;9.188;2023-04-24T00:11:52;9.60;81.90
75451;DHT22;64029;48.244;9.188;2023-04-24T00:14:19;9.60;82.00
75451;DHT22;64029;48.244;9.188;2023-04-24T00:16:47;9.50;82.00
75451;DHT22;64029;48.244;9.188;2023-04-24T00:19:14;9.50;83.50
75451;DHT22;64029;48.244;9.188;2023-04-24T00:21:42;9.50;82.20
75451;DHT22;64029;48.244;9.188;2023-04-24T00:24:09;9.50;82.50
75451;DHT22;64029;48.244;9.188;2023-04-24T00:26:35;9.50;81.70
75451;DHT22;64029;48.244;9.188;2023-04-24T00:29:02;9.50;82.80
75451;DHT22;64029;48.244;9.188;2023-04-24T00:31:29;9.50;81.80
75451;DHT22;64029;48.244;9.188;2023-04-24T00:33:57;9.50;81.80
75451;DHT22;64029;48.244;9.188;2023-04-24T00:36:24;9.50;81.80
75451;DHT22;64029;48.244;9.188;2023-04-24T00:38:52;9.40;81.80
75451;DHT22;64029;48.244;9.188;2023-04-24T00:41:19;9.40;82.10
75451;DHT22;64029;48.244;9.188;2023-04-24T00:43:46;9.40;82.00
75451;DHT22;64029;48.244;9.188;2023-04-24T00:46:14;9.40;82.10
75451;DHT22;64029;48.244;9.188;2023-04-24T00:48:40;9.30;82.20
75451;DHT22;64029;48.244;9.188;2023-04-24T00:51:09;9.30;82.40
75451;DHT22;64029;48.244;9.188;2023-04-24T00:53:36;9.30;82.40
75451;DHT22;64029;48.244;9.188;2023-04-24T00:56:03;9.30;82.20
75451;DHT22;64029;48.244;9.188;2023-04-24T00:58:31;9.30;82.20
75451;DHT22;64029;48.244;9.188;2023-04-24T01:00:58;9.30;82.00
75451;DHT22;64029;48.244;9.188;2023-04-24T01:03:29;9.30;81.90
75451;DHT22;64029;48.244;9.188;2023-04-24T01:05:57;9.30;82.10
75451;DHT22;64029;48.244;9.188;2023-04-24T01:08:26;9.30;82.20
75451;DHT22;64029;48.244;9.188;2023-04-24T01:10:55;9.30;82.50
75451;DHT22;64029;48.244;9.188;2023-04-24T01:13:23;9.30;82.60
75451;DHT22;64029;48.244;9.188;2023-04-24T01:15:50;9.20;82.50
75451;DHT22;64029;48.244;9.188;2023-04-24T01:18:17;9.20;82.50
75451;DHT22;64029;48.244;9.188;2023-04-24T01:20:45;9.20;82.50
75451;DHT22;64029;48.244;9.188;2023-04-24T01:23:14;9.20;82.30
75451;DHT22;64029;48.244;9.188;2023-04-24T01:25:41;9.20;82.30
75451;DHT22;64029;48.244;9.188;2023-04-24T01:28:07;9.20;82.20
75451;DHT22;64029;48.244;9.188;2023-04-24T01:30:34;9.20;82.10
75451;DHT22;64029;48.244;9.188;2023-04-24T01:33:02;9.20;82.20
75451;DHT22;64029;48.244;9.188;2023-04-24T01:35:29;9.20;82.40
75451;DHT22;64029;48.244;9.188;2023-04-24T01:37:56;9.20;82.50
75451;DHT22;64029;48.244;9.188;2023-04-24T01:40:24;9.20;82.50
75451;DHT22;64029;48.244;9.188;2023-04-24T01:42:51;9.20;82.70
75451;DHT22;64029;48.244;9.188;2023-04-24T01:45:18;9.20;82.80
75451;DHT22;64029;48.244;9.188;2023-04-24T01:47:45;9.10;82.60
75451;DHT22;64029;48.244;9.188;2023-04-24T01:50:14;9.10;82.60
75451;DHT22;64029;48.244;9.188;2023-04-24T01:52:41;9.10;82.60
75451;DHT22;64029;48.244;9.188;2023-04-24T01:55:09;9.10;82.80
75451;DHT22;64029;48.244;9.188;2023-04-24T01:57:38;9.10;82.80
75451;DHT22;64029;48.244;9.188;2023-04-24T02:00:06;9.10;82.90
75451;DHT22;64029;48.244;9.188;2023-04-24T02:02:33;9.10;82.90
75451;DHT22;64029;48.244;9.188;2023-04-24T02:05:00;9.10;83.00
75451;DHT22;64029;48.244;9.188;2023-04-24T02:07:28;9.10;82.80
75451;DHT22;64029;48.244;9.188;2023-04-24T02:09:55;9.10;83.10
75451;DHT22;64029;48.244;9.188;2023-04-24T02:12:22;9.10;82.60
75451;DHT22;64029;48.244;9.188;2023-04-24T02:14:50;9.10;83.50
75451;DHT22;64029;48.244;9.188;2023-04-24T02:17:17;9.00;83.00
75451;DHT22;64029;48.244;9.188;2023-04-24T02:19:44;9.00;83.00
75451;DHT22;64029;48.244;9.188;2023-04-24T02:22:11;9.00;83.10
75451;DHT22;64029;48.244;9.188;2023-04-24T02:24:39;9.00;83.90
75451;DHT22;64029;48.244;9.188;2023-04-24T02:27:06;9.00;83.30
75451;DHT22;64029;48.244;9.188;2023-04-24T02:29:33;9.00;83.40
75451;DHT22;64029;48.244;9.188;2023-04-24T02:32:01;9.00;83.50
75451;DHT22;64029;48.244;9.188;2023-04-24T02:34:28;9.00;83.30
75451;DHT22;64029;48.244;9.188;2023-04-24T02:36:55;9.00;83.50
75451;DHT22;64029;48.244;9.188;2023-04-24T02:39:22;8.90;82.90
75451;DHT22;64029;48.244;9.188;2023-04-24T02:41:49;8.90;83.10
75451;DHT22;64029;48.244;9.188;2023-04-24T02:44:15;8.90;82.70
75451;DHT22;64029;48.244;9.188;2023-04-24T02:46:43;9.00;82.50
75451;DHT22;64029;48.244;9.188;2023-04-24T02:49:11;8.90;82.30
75451;DHT22;64029;48.244;9.188;2023-04-24T02:51:38;8.90;82.40
75451;DHT22;64029;48.244;9.188;2023-04-24T02:54:07;8.90;82.70
75451;DHT22;64029;48.244;9.188;2023-04-24T02:56:34;8.90;82.30
75451;DHT22;64029;48.244;9.188;2023-04-24T02:59:01;8.90;82.80
75451;DHT22;64029;48.244;9.188;2023-04-24T03:01:28;8.90;82.40
75451;DHT22;64029;48.244;9.188;2023-04-24T03:03:55;8.90;82.20
75451;DHT22;64029;48.244;9.188;2023-04-24T03:06:23;8.90;83.00
75451;DHT22;64029;48.244;9.188;2023-04-24T03:08:50;8.80;84.10
75451;DHT22;64029;48.244;9.188;2023-04-24T03:11:16;8.80;83.40
75451;DHT22;64029;48.244;9.188;2023-04-24T03:13:43;8.80;83.00
75451;DHT22;64029;48.244;9.188;2023-04-24T03:16:10;8.80;82.50
75451;DHT22;64029;48.244;9.188;2023-04-24T03:18:37;8.90;82.60
75451;DHT22;64029;48.244;9.188;2023-04-24T03:21:04;8.90;82.30
75451;DHT22;64029;48.244;9.188;2023-04-24T03:23:32;8.80;82.70
75451;DHT22;64029;48.244;9.188;2023-04-24T03:25:59;8.80;83.20
75451;DHT22;64029;48.244;9.188;2023-04-24T03:28:26;8.80;82.70
75451;DHT22;64029;48.244;9.188;2023-04-24T03:30:53;8.80;83.20
75451;DHT22;64029;48.244;9.188;2023-04-24T03:33:20;8.80;82.60
75451;DHT22;64029;48.244;9.188;2023-04-24T03:35:46;8.80;82.70
75451;DHT22;64029;48.244;9.188;2023-04-24T03:38:13;8.70;82.50
75451;DHT22;64029;48.244;9.188;2023-04-24T03:40:41;8.70;82.50
75451;DHT22;64029;48.244;9.188;2023-04-24T03:43:08;8.70;82.30
75451;DHT22;64029;48.244;9.188;2023-04-24T03:45:35;8.70;82.30
75451;DHT22;64029;48.244;9.188;2023-04-24T03:48:02;8.70;83.40
75451;DHT22;64029;48.244;9.188;2023-04-24T03:50:29;8.70;82.50
75451;DHT22;64029;48.244;9.188;2023-04-24T03:52:55;8.70;83.40
75451;DHT22;64029;48.244;9.188;2023-04-24T03:55:22;8.70;82.90
75451;DHT22;64029;48.244;9.188;2023-04-24T03:57:51;8.60;83.90
75451;DHT22;64029;48.244;9.188;2023-04-24T04:00:17;8.70;83.70
75451;DHT22;64029;48.244;9.188;2023-04-24T04:02:46;8.60;82.60
75451;DHT22;64029;48.244;9.188;2023-04-24T04:05:13;8.60;82.40
75451;DHT22;64029;48.244;9.188;2023-04-24T04:07:40;8.60;82.60
75451;DHT22;64029;48.244;9.188;2023-04-24T04:10:07;8.60;82.60
75451;DHT22;64029;48.244;9.188;2023-04-24T04:12:34;8.60;82.80
75451;DHT22;64029;48.244;9.188;2023-04-24T04:15:03;8.60;82.90
75451;DHT22;64029;48.244;9.188;2023-04-24T04:17:31;8.60;82.80
75451;DHT22;64029;48.244;9.188;2023-04-24T04:19:58;8.50;82.60
75451;DHT22;64029;48.244;9.188;2023-04-24T04:22:25;8.50;82.70
75451;DHT22;64029;48.244;9.188;2023-04-24T04:24:52;8.50;82.40
75451;DHT22;64029;48.244;9.188;2023-04-24T04:27:19;8.50;82.70
75451;DHT22;64029;48.244;9.188;2023-04-24T04:29:46;8.50;82.70
75451;DHT22;64029;48.244;9.188;2023-04-24T04:32:15;8.50;83.20
75451;DHT22;64029;48.244;9.188;2023-04-24T04:34:42;8.50;83.30
75451;DHT22;64029;48.244;9.188;2023-04-24T04:37:10;8.50;83.00
75451;DHT22;64029;48.244;9.188;2023-04-24T04:39:38;8.50;83.30
75451;DHT22;64029;48.244;9.188;2023-04-24T04:42:04;8.50;83.30
75451;DHT22;64029;48.244;9.188;2023-04-24T04:44:32;8.50;82.90
75451;DHT22;64029;48.244;9.188;2023-04-24T04:47:01;8.50;82.70
75451;DHT22;64029;48.244;9.188;2023-04-24T04:49:32;8.50;82.90
75451;DHT22;64029;48.244;9.188;2023-04-24T04:51:59;8.50;83.10
75451;DHT22;64029;48.244;9.188;2023-04-24T04:54:26;8.50;82.80
75451;DHT22;64029;48.244;9.188;2023-04-24T04:56:53;8.50;82.90
75451;DHT22;64029;48.244;9.188;2023-04-24T04:59:20;8.50;83.00
75451;DHT22;64029;48.244;9.188;2023-04-24T05:01:47;8.50;83.20
75451;DHT22;64029;48.244;9.188;2023-04-24T05:04:13;8.50;83.50
75451;DHT22;64029;48.244;9.188;2023-04-24T05:06:42;8.50;83.70
75451;DHT22;64029;48.244;9.188;2023-04-24T05:09:08;8.50;83.80
75451;DHT22;64029;48.244;9.188;2023-04-24T05:11:35;8.50;83.70
75451;DHT22;64029;48.244;9.188;2023-04-24T05:14:02;8.50;86.90
75451;DHT22;64029;48.244;9.188;2023-04-24T05:16:29;8.50;85.80
75451;DHT22;64029;48.244;9.188;2023-04-24T05:18:56;8.20;84.40
75451;DHT22;64029;48.244;9.188;2023-04-24T05:21:22;8.10;84.00
75451;DHT22;64029;48.244;9.188;2023-04-24T05:23:51;8.10;83.90
75451;DHT22;64029;48.244;9.188;2023-04-24T05:26:17;8.20;83.70
75451;DHT22;64029;48.244;9.188;2023-04-24T05:28:44;8.20;83.00
75451;DHT22;64029;48.244;9.188;2023-04-24T05:31:11;8.20;82.90
75451;DHT22;64029;48.244;9.188;2023-04-24T05:33:39;8.20;83.00
75451;DHT22;64029;48.244;9.188;2023-04-24T05:36:06;8.10;83.00
75451;DHT22;64029;48.244;9.188;2023-04-24T05:38:33;8.10;82.90
75451;DHT22;64029;48.244;9.188;2023-04-24T05:41:01;8.10;82.70
75451;DHT22;64029;48.244;9.188;2023-04-24T05:43:28;8.00;82.30
75451;DHT22;64029;48.244;9.188;2023-04-24T05:45:55;8.00;82.40
75451;DHT22;64029;48.244;9.188;2023-04-24T05:48:22;7.90;82.20
75451;DHT22;64029;48.244;9.188;2023-04-24T05:50:49;8.00;82.10
75451;DHT22;64029;48.244;9.188;2023-04-24T05:53:16;8.00;81.90
75451;DHT22;64029;48.244;9.188;2023-04-24T05:55:43;8.10;81.60
75451;DHT22;64029;48.244;9.188;2023-04-24T05:58:12;8.00;81.40
75451;DHT22;64029;48.244;9.188;2023-04-24T06:00:38;8.00;81.60
75451;DHT22;64029;48.244;9.188;2023-04-24T06:03:08;8.00;81.30
75451;DHT22;64029;48.244;9.188;2023-04-24T06:05:35;8.10;81.30
75451;DHT22;64029;48.244;9.188;2023-04-24T06:08:01;8.10;82.00
75451;DHT22;64029;48.244;9.188;2023-04-24T06:10:28;8.10;81.10
75451;DHT22;64029;48.244;9.188;2023-04-24T06:12:55;8.00;81.00
75451;DHT22;64029;48.244;9.188;2023-04-24T06:15:28;8.00;81.20
75451;DHT22;64029;48.244;9.188;2023-04-24T06:17:55;8.00;81.30
75451;DHT22;64029;48.244;9.188;2023-04-24T06:20:22;8.00;81.30
75451;DHT22;64029;48.244;9.188;2023-04-24T06:22:49;8.00;81.90
75451;DHT22;64029;48.244;9.188;2023-04-24T06:25:16;8.20;82.20
75451;DHT22;64029;48.244;9.188;2023-04-24T06:27:43;8.30;81.30
75451;DHT22;64029;48.244;9.188;2023-04-24T06:30:10;8.30;81.30
75451;DHT22;64029;48.244;9.188;2023-04-24T06:32:39;8.30;81.00
75451;DHT22;64029;48.244;9.188;2023-04-24T06:35:07;8.40;81.00
75451;DHT22;64029;48.244;9.188;2023-04-24T06:37:35;8.60;82.20
75451;DHT22;64029;48.244;9.188;2023-04-24T06:40:02;8.70;81.30
75451;DHT22;64029;48.244;9.188;2023-04-24T06:42:29;8.70;81.10
75451;DHT22;64029;48.244;9.188;2023-04-24T06:44:56;8.90;81.40
75451;DHT22;64029;48.244;9.188;2023-04-24T06:47:23;9.00;81.70
75451;DHT22;64029;48.244;9.188;2023-04-24T06:49:51;9.10;81.90
75451;DHT22;64029;48.244;9.188;2023-04-24T06:52:18;9.30;82.20
75451;DHT22;64029;48.244;9.188;2023-04-24T06:54:45;9.50;82.50
75451;DHT22;64029;48.244;9.188;2023-04-24T06:57:12;9.70;82.30
75451;DHT22;64029;48.244;9.188;2023-04-24T06:59:39;9.80;82.10
75451;DHT22;64029;48.244;9.188;2023-04-24T07:02:06;10.00;81.50
75451;DHT22;64029;48.244;9.188;2023-04-24T07:04:32;10.20;81.60
75451;DHT22;64029;48.244;9.188;2023-04-24T07:07:01;10.30;79.60
75451;DHT22;64029;48.244;9.188;2023-04-24T07:09:28;10.50;80.20
75451;DHT22;64029;48.244;9.188;2023-04-24T07:11:55;10.60;79.10
75451;DHT22;64029;48.244;9.188;2023-04-24T07:14:23;10.70;78.50
75451;DHT22;64029;48.244;9.188;2023-04-24T07:16:50;11.00;80.20
75451;DHT22;64029;48.244;9.188;2023-04-24T07:19:17;11.10;78.20
75451;DHT22;64029;48.244;9.188;2023-04-24T07:21:44;11.30;78.80
75451;DHT22;64029;48.244;9.188;2023-04-24T07:24:12;11.40;78.00
75451;DHT22;64029;48.244;9.188;2023-04-24T07:26:39;11.50;77.40
75451;DHT22;64029;48.244;9.188;2023-04-24T07:29:06;11.60;76.50
75451;DHT22;64029;48.244;9.188;2023-04-24T07:31:33;11.10;72.80
75451;DHT22;64029;48.244;9.188;2023-04-24T07:34:00;11.20;76.70
75451;DHT22;64029;48.244;9.188;2023-04-24T07:36:27;11.40;76.20
75451;DHT22;64029;48.244;9.188;2023-04-24T07:38:54;11.60;75.70
75451;DHT22;64029;48.244;9.188;2023-04-24T07:41:23;11.10;73.50
75451;DHT22;64029;48.244;9.188;2023-04-24T07:43:50;11.50;74.90
75451;DHT22;64029;48.244;9.188;2023-04-24T07:46:18;11.50;75.30
75451;DHT22;64029;48.244;9.188;2023-04-24T07:48:44;11.60;74.40
75451;DHT22;64029;48.244;9.188;2023-04-24T07:51:13;11.70;74.20
75451;DHT22;64029;48.244;9.188;2023-04-24T07:53:40;11.70;73.30
75451;DHT22;64029;48.244;9.188;2023-04-24T07:56:07;11.40;70.90
75451;DHT22;64029;48.244;9.188;2023-04-24T07:58:35;10.70;72.60
75451;DHT22;64029;48.244;9.188;2023-04-24T08:01:02;10.60;74.40
75451;DHT22;64029;48.244;9.188;2023-04-24T08:03:29;10.80;75.50
75451;DHT22;64029;48.244;9.188;2023-04-24T08:05:56;11.00;74.60
75451;DHT22;64029;48.244;9.188;2023-04-24T08:08:23;10.80;74.30
75451;DHT22;64029;48.244;9.188;2023-04-24T08:10:50;10.50;73.00
75451;DHT22;64029;48.244;9.188;2023-04-24T08:13:17;10.60;74.40
75451;DHT22;64029;48.244;9.188;2023-04-24T08:15:45;10.50;73.90
75451;DHT22;64029;48.244;9.188;2023-04-24T08:18:12;10.60;73.70
75451;DHT22;64029;48.244;9.188;2023-04-24T08:20:41;10.70;73.30
75451;DHT22;64029;48.244;9.188;2023-04-24T08:23:08;10.50;73.10
75451;DHT22;64029;48.244;9.188;2023-04-24T08:25:34;10.60;73.90
75451;DHT22;64029;48.244;9.188;2023-04-24T08:28:02;10.60;74.10
75451;DHT22;64029;48.244;9.188;2023-04-24T08:30:29;10.70;74.50
75451;DHT22;64029;48.244;9.188;2023-04-24T08:32:58;10.60;74.30
75451;DHT22;64029;48.244;9.188;2023-04-24T08:35:24;10.50;74.60
75451;DHT22;64029;48.244;9.188;2023-04-24T08:37:52;10.30;75.40
75451;DHT22;64029;48.244;9.188;2023-04-24T08:40:22;10.30;75.50
75451;DHT22;64029;48.244;9.188;2023-04-24T08:42:52;10.40;75.60
75451;DHT22;64029;48.244;9.188;2023-04-24T08:45:21;10.50;75.60
75451;DHT22;64029;48.244;9.188;2023-04-24T08:47:48;10.60;75.60
75451;DHT22;64029;48.244;9.188;2023-04-24T08:50:17;10.50;75.00
75451;DHT22;64029;48.244;9.188;2023-04-24T08:52:44;10.20;74.90
75451;DHT22;64029;48.244;9.188;2023-04-24T08:55:11;10.20;76.00
75451;DHT22;64029;48.244;9.188;2023-04-24T08:57:38;10.20;75.00
75451;DHT22;64029;48.244;9.188;2023-04-24T09:00:07;10.20;75.00
75451;DHT22;64029;48.244;9.188;2023-04-24T09:02:34;10.30;74.80
75451;DHT22;64029;48.244;9.188;2023-04-24T09:05:02;10.50;75.20
75451;DHT22;64029;48.244;9.188;2023-04-24T09:07:34;10.70;75.10
75451;DHT22;64029;48.244;9.188;2023-04-24T09:10:02;10.70;74.80
75451;DHT22;64029;48.244;9.188;2023-04-24T09:12:30;10.70;74.50
75451;DHT22;64029;48.244;9.188;2023-04-24T09:14:57;10.70;74.90
75451;DHT22;64029;48.244;9.188;2023-04-24T09:17:24;10.80;75.00
75451;DHT22;64029;48.244;9.188;2023-04-24T09:19:53;10.90;75.00
75451;DHT22;64029;48.244;9.188;2023-04-24T09:22:21;10.80;73.90
75451;DHT22;64029;48.244;9.188;2023-04-24T09:24:59;10.90;74.30
75451;DHT22;64029;48.244;9.188;2023-04-24T09:27:28;10.80;73.30
75451;DHT22;64029;48.244;9.188;2023-04-24T09:29:56;10.90;74.00
75451;DHT22;64029;48.244;9.188;2023-04-24T09:32:24;10.80;72.40
75451;DHT22;64029;48.244;9.188;2023-04-24T09:35:05;10.40;71.40
75451;DHT22;64029;48.244;9.188;2023-04-24T09:37:36;10.60;72.40
75451;DHT22;64029;48.244;9.188;2023-04-24T09:40:15;10.50;73.10
75451;DHT22;64029;48.244;9.188;2023-04-24T09:42:51;10.70;73.50
75451;DHT22;64029;48.244;9.188;2023-04-24T09:45:18;10.90;73.30
75451;DHT22;64029;48.244;9.188;2023-04-24T09:47:45;10.70;69.90
75451;DHT22;64029;48.244;9.188;2023-04-24T09:50:13;10.60;68.90
75451;DHT22;64029;48.244;9.188;2023-04-24T09:52:41;10.60;69.50
75451;DHT22;64029;48.244;9.188;2023-04-24T09:55:20;10.60;68.70
75451;DHT22;64029;48.244;9.188;2023-04-24T09:57:49;10.70;70.50
75451;DHT22;64029;48.244;9.188;2023-04-24T10:00:22;10.60;67.50
75451;DHT22;64029;48.244;9.188;2023-04-24T10:02:56;10.40;68.00
75451;DHT22;64029;48.244;9.188;2023-04-24T10:05:24;10.40;68.60
75451;DHT22;64029;48.244;9.188;2023-04-24T10:07:51;10.60;69.60
75451;DHT22;64029;48.244;9.188;2023-04-24T10:10:20;10.50;68.40
75451;DHT22;64029;48.244;9.188;2023-04-24T10:12:47;10.50;69.30
75451;DHT22;64029;48.244;9.188;2023-04-24T10:15:15;10.60;69.60
75451;DHT22;64029;48.244;9.188;2023-04-24T10:17:47;10.70;69.50
75451;DHT22;64029;48.244;9.188;2023-04-24T10:20:18;10.70;69.50
75451;DHT22;64029;48.244;9.188;2023-04-24T10:22:48;10.70;69.20
75451;DHT22;64029;48.244;9.188;2023-04-24T10:25:17;10.80;70.10
75451;DHT22;64029;48.244;9.188;2023-04-24T10:27:47;10.90;69.80
75451;DHT22;64029;48.244;9.188;2023-04-24T10:30:14;10.70;67.70
75451;DHT22;64029;48.244;9.188;2023-04-24T10:32:41;10.60;67.80
75451;DHT22;64029;48.244;9.188;2023-04-24T10:35:08;10.80;70.50
75451;DHT22;64029;48.244;9.188;2023-04-24T10:37:39;10.80;67.40
75451;DHT22;64029;48.244;9.188;2023-04-24T10:40:09;10.80;67.80
75451;DHT22;64029;48.244;9.188;2023-04-24T10:42:40;10.70;65.50
75451;DHT22;64029;48.244;9.188;2023-04-24T10:45:17;10.40;65.30
75451;DHT22;64029;48.244;9.188;2023-04-24T10:47:52;10.20;63.10
75451;DHT22;64029;48.244;9.188;2023-04-24T10:50:19;10.10;65.40
75451;DHT22;64029;48.244;9.188;2023-04-24T10:52:46;10.30;66.30
75451;DHT22;64029;48.244;9.188;2023-04-24T10:55:14;10.40;65.60
75451;DHT22;64029;48.244;9.188;2023-04-24T10:58:01;10.40;66.50
75451;DHT22;64029;48.244;9.188;2023-04-24T11:00:29;10.60;66.90
75451;DHT22;64029;48.244;9.188;2023-04-24T11:02:57;10.70;67.10
75451;DHT22;64029;48.244;9.188;2023-04-24T11:05:50;10.60;65.50
75451;DHT22;64029;48.244;9.188;2023-04-24T11:08:23;10.70;66.70
75451;DHT22;64029;48.244;9.188;2023-04-24T11:10:58;10.60;66.10
75451;DHT22;64029;48.244;9.188;2023-04-24T11:13:27;10.80;67.10
75451;DHT22;64029;48.244;9.188;2023-04-24T11:16:14;10.50;65.00
75451;DHT22;64029;48.244;9.188;2023-04-24T11:18:43;10.40;64.80
75451;DHT22;64029;48.244;9.188;2023-04-24T11:21:16;10.50;65.80
75451;DHT22;64029;48.244;9.188;2023-04-24T11:23:44;10.30;64.90
75451;DHT22;64029;48.244;9.188;2023-04-24T11:26:13;10.50;66.50
75451;DHT22;64029;48.244;9.188;2023-04-24T11:28:47;10.60;66.90
75451;DHT22;64029;48.244;9.188;2023-04-24T11:31:38;10.60;65.00
75451;DHT22;64029;48.244;9.188;2023-04-24T11:34:09;10.70;64.50
75451;DHT22;64029;48.244;9.188;2023-04-24T11:36:37;10.90;66.00
75451;DHT22;64029;48.244;9.188;2023-04-24T11:39:04;10.70;62.60
75451;DHT22;64029;48.244;9.188;2023-04-24T11:41:32;10.60;61.10
75451;DHT22;64029;48.244;9.188;2023-04-24T11:43:59;10.50;62.00
75451;DHT22;64029;48.244;9.188;2023-04-24T11:46:28;10.40;61.10
75451;DHT22;64029;48.244;9.188;2023-04-24T11:48:56;10.40;60.90
75451;DHT22;64029;48.244;9.188;2023-04-24T11:51:24;10.40;62.50
75451;DHT22;64029;48.244;9.188;2023-04-24T11:53:52;10.30;61.30
75451;DHT22;64029;48.244;9.188;2023-04-24T11:56:19;10.30;61.90
75451;DHT22;64029;48.244;9.188;2023-04-24T11:58:47;10.20;62.00
75451;DHT22;64029;48.244;9.188;2023-04-24T12:01:14;10.40;63.60
75451;DHT22;64029;48.244;9.188;2023-04-24T12:03:41;10.50;63.40
75451;DHT22;64029;48.244;9.188;2023-04-24T12:06:13;10.50;62.50
75451;DHT22;64029;48.244;9.188;2023-04-24T12:08:40;10.60;63.50
75451;DHT22;64029;48.244;9.188;2023-04-24T12:11:07;10.60;63.30
75451;DHT22;64029;48.244;9.188;2023-04-24T12:13:34;10.70;62.60
75451;DHT22;64029;48.244;9.188;2023-04-24T12:16:02;10.70;62.80
75451;DHT22;64029;48.244;9.188;2023-04-24T12:18:30;10.50;61.60
75451;DHT22;64029;48.244;9.188;2023-04-24T12:21:16;10.30;60.00
75451;DHT22;64029;48.244;9.188;2023-04-24T12:23:43;10.40;61.80
75451;DHT22;64029;48.244;9.188;2023-04-24T12:26:11;10.30;61.70
75451;DHT22;64029;48.244;9.188;2023-04-24T12:28:38;10.30;61.30
75451;DHT22;64029;48.244;9.188;2023-04-24T12:31:06;10.30;61.90
75451;DHT22;64029;48.244;9.188;2023-04-24T12:33:34;10.30;60.40
75451;DHT22;64029;48.244;9.188;2023-04-24T12:36:01;10.20;61.50
75451;DHT22;64029;48.244;9.188;2023-04-24T12:38:30;10.30;60.60
75451;DHT22;64029;48.244;9.188;2023-04-24T12:41:04;10.30;60.70
75451;DHT22;64029;48.244;9.188;2023-04-24T12:43:31;10.20;60.10
75451;DHT22;64029;48.244;9.188;2023-04-24T12:45:59;10.30;61.50
75451;DHT22;64029;48.244;9.188;2023-04-24T12:48:26;10.30;61.20
75451;DHT22;64029;48.244;9.188;2023-04-24T12:50:53;10.40;59.90
75451;DHT22;64029;48.244;9.188;2023-04-24T12:53:20;10.30;59.00
75451;DHT22;64029;48.244;9.188;2023-04-24T12:55:50;10.20;59.80
75451;DHT22;64029;48.244;9.188;2023-04-24T12:58:19;10.30;60.90
75451;DHT22;64029;48.244;9.188;2023-04-24T13:00:46;10.30;60.60
75451;DHT22;64029;48.244;9.188;2023-04-24T13:03:13;10.50;61.90
75451;DHT22;64029;48.244;9.188;2023-04-24T13:05:41;10.60;61.60
75451;DHT22;64029;48.244;9.188;2023-04-24T13:08:08;10.50;60.60
75451;DHT22;64029;48.244;9.188;2023-04-24T13:10:35;10.60;62.10
75451;DHT22;64029;48.244;9.188;2023-04-24T13:13:03;10.70;62.10
75451;DHT22;64029;48.244;9.188;2023-04-24T13:15:32;10.50;60.70
75451;DHT22;64029;48.244;9.188;2023-04-24T13:18:02;10.40;60.30
75451;DHT22;64029;48.244;9.188;2023-04-24T13:20:32;10.40;60.30
75451;DHT22;64029;48.244;9.188;2023-04-24T13:23:00;10.30;59.40
75451;DHT22;64029;48.244;9.188;2023-04-24T13:25:27;10.50;61.90
75451;DHT22;64029;48.244;9.188;2023-04-24T13:27:55;10.50;60.80
75451;DHT22;64029;48.244;9.188;2023-04-24T13:30:23;10.60;62.60
75451;DHT22;64029;48.244;9.188;2023-04-24T13:32:50;10.60;59.70
75451;DHT22;64029;48.244;9.188;2023-04-24T13:35:17;10.30;58.50
75451;DHT22;64029;48.244;9.188;2023-04-24T13:37:44;10.40;58.80
75451;DHT22;64029;48.244;9.188;2023-04-24T13:40:11;10.40;60.50
75451;DHT22;64029;48.244;9.188;2023-04-24T13:42:38;10.50;59.90
75451;DHT22;64029;48.244;9.188;2023-04-24T13:45:05;10.60;59.20
75451;DHT22;64029;48.244;9.188;2023-04-24T13:47:34;10.60;59.20
75451;DHT22;64029;48.244;9.188;2023-04-24T13:50:01;10.50;58.70
75451;DHT22;64029;48.244;9.188;2023-04-24T13:52:28;10.60;60.40
75451;DHT22;64029;48.244;9.188;2023-04-24T13:54:55;10.40;58.50
75451;DHT22;64029;48.244;9.188;2023-04-24T13:57:22;10.50;60.00
75451;DHT22;64029;48.244;9.188;2023-04-24T13:59:48;10.50;59.10
75451;DHT22;64029;48.244;9.188;2023-04-24T14:02:15;10.50;59.20
75451;DHT22;64029;48.244;9.188;2023-04-24T14:04:43;10.50;59.40
75451;DHT22;64029;48.244;9.188;2023-04-24T14:07:10;10.60;59.80
75451;DHT22;64029;48.244;9.188;2023-04-24T14:09:37;10.50;58.40
75451;DHT22;64029;48.244;9.188;2023-04-24T14:12:04;10.40;58.30
75451;DHT22;64029;48.244;9.188;2023-04-24T14:14:32;10.50;59.30
75451;DHT22;64029;48.244;9.188;2023-04-24T14:16:59;10.40;59.20
75451;DHT22;64029;48.244;9.188;2023-04-24T14:19:26;10.50;59.90
75451;DHT22;64029;48.244;9.188;2023-04-24T14:21:54;10.60;58.70
75451;DHT22;64029;48.244;9.188;2023-04-24T14:24:22;10.60;59.50
75451;DHT22;64029;48.244;9.188;2023-04-24T14:26:49;10.50;58.10
75451;DHT22;64029;48.244;9.188;2023-04-24T14:29:15;10.50;59.60
75451;DHT22;64029;48.244;9.188;2023-04-24T14:31:43;10.50;58.60
75451;DHT22;64029;48.244;9.188;2023-04-24T14:34:11;10.50;59.00
75451;DHT22;64029;48.244;9.188;2023-04-24T14:36:38;10.40;58.30
75451;DHT22;64029;48.244;9.188;2023-04-24T14:39:06;10.50;59.30
75451;DHT22;64029;48.244;9.188;2023-04-24T14:41:33;10.60;59.40
75451;DHT22;64029;48.244;9.188;2023-04-24T14:44:01;10.60;59.90
75451;DHT22;64029;48.244;9.188;2023-04-24T14:46:29;10.70;59.40
75451;DHT22;64029;48.244;9.188;2023-04-24T14:48:56;10.70;60.50
75451;DHT22;64029;48.244;9.188;2023-04-24T14:51:24;10.70;59.70
75451;DHT22;64029;48.244;9.188;2023-04-24T14:53:52;10.60;59.60
75451;DHT22;64029;48.244;9.188;2023-04-24T14:56:20;10.70;60.10
75451;DHT22;64029;48.244;9.188;2023-04-24T14:58:47;10.70;60.10
75451;DHT22;64029;48.244;9.188;2023-04-24T15:01:14;10.80;60.30
75451;DHT22;64029;48.244;9.188;2023-04-24T15:03:41;10.80;59.90
75451;DHT22;64029;48.244;9.188;2023-04-24T15:06:08;10.70;59.80
75451;DHT22;64029;48.244;9.188;2023-04-24T15:08:35;10.70;59.70
75451;DHT22;64029;48.244;9.188;2023-04-24T15:11:02;10.70;59.90
75451;DHT22;64029;48.244;9.188;2023-04-24T15:13:30;10.70;59.60
75451;DHT22;64029;48.244;9.188;2023-04-24T15:15:57;10.60;59.70
75451;DHT22;64029;48.244;9.188;2023-04-24T15:18:24;10.50;59.60
75451;DHT22;64029;48.244;9.188;2023-04-24T15:21:28;10.40;59.80
75451;DHT22;64029;48.244;9.188;2023-04-24T15:24:30;10.60;60.20
75451;DHT22;64029;48.244;9.188;2023-04-24T15:27:25;10.60;60.00
75451;DHT22;64029;48.244;9.188;2023-04-24T15:30:25;10.70;60.70
75451;DHT22;64029;48.244;9.188;2023-04-24T15:33:17;10.70;59.80
75451;DHT22;64029;48.244;9.188;2023-04-24T15:35:52;10.60;59.00
75451;DHT22;64029;48.244;9.188;2023-04-24T15:38:44;10.60;60.30
75451;DHT22;64029;48.244;9.188;2023-04-24T15:44:55;10.60;59.60
75451;DHT22;64029;48.244;9.188;2023-04-24T15:51:22;10.70;60.00
75451;DHT22;64029;48.244;9.188;2023-04-24T15:54:22;10.60;59.10